sensor_id;sensor_type;location;lat;lon;timestamp;temperature;humidity
61092;DHT22;46975;51.898;11.444;2022-11-25T00:01:27;5.80;99.90
61092;DHT22;46975;51.898;11.444;2022-11-25T00:03:54;5.70;99.90
61092;DHT22;46975;51.898;11.444;2022-11-25T00:06:25;5.60;99.90
61092;DHT22;46975;51.898;11.444;2022-11-25T00:08:59;5.60;99.90
61092;DHT22;46975;51.898;11.444;2022-11-25T00:11:26;5.50;99.90
61092;DHT22;46975;51.898;11.444;2022-11-25T00:13:53;5.40;99.90
61092;DHT22;46975;51.898;11.444;2022-11-25T00:16:20;5.50;99.90
61092;DHT22;46975;51.898;11.444;2022-11-25T00:18:47;5.40;99.90
61092;DHT22;46975;51.898;11.444;2022-11-25T00:21:16;5.30;99.90
61092;DHT22;46975;51.898;11.444;2022-11-25T00:23:42;5.30;99.90
61092;DHT22;46975;51.898;11.444;2022-11-25T00:26:15;5.30;99.90
61092;DHT22;46975;51.898;11.444;2022-11-25T00:28:42;5.30;99.90
61092;DHT22;46975;51.898;11.444;2022-11-25T00:31:11;5.30;99.90
61092;DHT22;46975;51.898;11.444;2022-11-25T00:33:37;5.30;99.90
61092;DHT22;46975;51.898;11.444;2022-11-25T00:36:05;5.20;99.90
61092;DHT22;46975;51.898;11.444;2022-11-25T00:38:31;5.10;99.90
61092;DHT22;46975;51.898;11.444;2022-11-25T00:40:56;5.00;99.90
61092;DHT22;46975;51.898;11.444;2022-11-25T00:43:41;4.80;99.90
61092;DHT22;46975;51.898;11.444;2022-11-25T00:46:25;4.70;99.90
61092;DHT22;46975;51.898;11.444;2022-11-25T00:48:51;4.60;99.90
61092;DHT22;46975;51.898;11.444;2022-11-25T00:51:17;4.40;99.90
61092;DHT22;46975;51.898;11.444;2022-11-25T00:53:42;4.40;99.90
61092;DHT22;46975;51.898;11.444;2022-11-25T00:56:08;4.30;99.90
61092;DHT22;46975;51.898;11.444;2022-11-25T00:58:40;4.30;99.90
61092;DHT22;46975;51.898;11.444;2022-11-25T01:01:08;4.20;99.90
61092;DHT22;46975;51.898;11.444;2022-11-25T01:03:33;4.20;99.90
61092;DHT22;46975;51.898;11.444;2022-11-25T01:06:08;4.20;99.90
61092;DHT22;46975;51.898;11.444;2022-11-25T01:08:36;4.40;99.90
61092;DHT22;46975;51.898;11.444;2022-11-25T01:11:07;4.60;99.90
61092;DHT22;46975;51.898;11.444;2022-11-25T01:13:34;4.70;99.90
61092;DHT22;46975;51.898;11.444;2022-11-25T01:16:01;4.90;99.90
61092;DHT22;46975;51.898;11.444;2022-11-25T01:18:28;4.90;99.90
61092;DHT22;46975;51.898;11.444;2022-11-25T01:20:54;5.00;99.90
61092;DHT22;46975;51.898;11.444;2022-11-25T01:23:19;5.10;99.90
61092;DHT22;46975;51.898;11.444;2022-11-25T01:25:45;5.10;99.90
61092;DHT22;46975;51.898;11.444;2022-11-25T01:28:11;5.10;99.90
61092;DHT22;46975;51.898;11.444;2022-11-25T01:30:38;5.10;99.90
61092;DHT22;46975;51.898;11.444;2022-11-25T01:33:04;5.10;99.90
61092;DHT22;46975;51.898;11.444;2022-11-25T01:35:30;5.10;99.90
61092;DHT22;46975;51.898;11.444;2022-11-25T01:37:55;5.20;99.90
61092;DHT22;46975;51.898;11.444;2022-11-25T01:40:21;5.20;99.90
61092;DHT22;46975;51.898;11.444;2022-11-25T01:42:47;5.20;99.90
61092;DHT22;46975;51.898;11.444;2022-11-25T01:47:54;5.10;99.90
61092;DHT22;46975;51.898;11.444;2022-11-25T01:50:23;5.00;99.90
61092;DHT22;46975;51.898;11.444;2022-11-25T01:52:51;5.10;99.90
61092;DHT22;46975;51.898;11.444;2022-11-25T01:55:21;5.10;99.90
61092;DHT22;46975;51.898;11.444;2022-11-25T01:58:09;5.00;99.90
61092;DHT22;46975;51.898;11.444;2022-11-25T02:00:37;5.00;99.90
61092;DHT22;46975;51.898;11.444;2022-11-25T02:03:03;5.00;99.90
61092;DHT22;46975;51.898;11.444;2022-11-25T02:08:03;4.90;99.90
61092;DHT22;46975;51.898;11.444;2022-11-25T02:10:31;4.90;99.90
61092;DHT22;46975;51.898;11.444;2022-11-25T02:12:59;4.80;99.90
61092;DHT22;46975;51.898;11.444;2022-11-25T02:15:25;4.80;99.90
61092;DHT22;46975;51.898;11.444;2022-11-25T02:17:51;4.70;99.90
61092;DHT22;46975;51.898;11.444;2022-11-25T02:20:20;4.60;99.90
61092;DHT22;46975;51.898;11.444;2022-11-25T02:22:51;4.50;99.90
61092;DHT22;46975;51.898;11.444;2022-11-25T02:25:23;4.50;99.90
61092;DHT22;46975;51.898;11.444;2022-11-25T02:28:05;4.60;99.90
61092;DHT22;46975;51.898;11.444;2022-11-25T02:30:32;4.60;99.90
61092;DHT22;46975;51.898;11.444;2022-11-25T02:32:59;4.90;99.90
61092;DHT22;46975;51.898;11.444;2022-11-25T02:35:37;5.00;99.90
61092;DHT22;46975;51.898;11.444;2022-11-25T02:40:36;5.00;99.90
61092;DHT22;46975;51.898;11.444;2022-11-25T02:43:04;5.00;99.90
61092;DHT22;46975;51.898;11.444;2022-11-25T02:45:41;5.00;99.90
61092;DHT22;46975;51.898;11.444;2022-11-25T02:48:08;5.00;99.90
61092;DHT22;46975;51.898;11.444;2022-11-25T02:50:34;5.00;99.90
61092;DHT22;46975;51.898;11.444;2022-11-25T02:52:59;5.00;99.90
61092;DHT22;46975;51.898;11.444;2022-11-25T02:55:25;5.00;99.90
61092;DHT22;46975;51.898;11.444;2022-11-25T02:57:51;4.80;99.90
61092;DHT22;46975;51.898;11.444;2022-11-25T03:00:17;4.70;99.90
61092;DHT22;46975;51.898;11.444;2022-11-25T03:02:42;4.50;99.90
61092;DHT22;46975;51.898;11.444;2022-11-25T03:05:08;4.50;99.90
61092;DHT22;46975;51.898;11.444;2022-11-25T03:07:34;4.40;99.90
61092;DHT22;46975;51.898;11.444;2022-11-25T03:09:59;4.50;99.90
61092;DHT22;46975;51.898;11.444;2022-11-25T03:12:25;4.90;99.90
61092;DHT22;46975;51.898;11.444;2022-11-25T03:14:53;5.20;99.90
61092;DHT22;46975;51.898;11.444;2022-11-25T03:17:18;5.30;99.90
61092;DHT22;46975;51.898;11.444;2022-11-25T03:19:44;5.40;99.90
61092;DHT22;46975;51.898;11.444;2022-11-25T03:22:10;5.30;99.90
61092;DHT22;46975;51.898;11.444;2022-11-25T03:24:35;5.40;99.90
61092;DHT22;46975;51.898;11.444;2022-11-25T03:27:01;5.40;99.90
61092;DHT22;46975;51.898;11.444;2022-11-25T03:29:26;5.30;99.90
61092;DHT22;46975;51.898;11.444;2022-11-25T03:31:52;5.40;99.90
61092;DHT22;46975;51.898;11.444;2022-11-25T03:34:18;5.40;99.90
61092;DHT22;46975;51.898;11.444;2022-11-25T03:36:43;5.40;99.90
61092;DHT22;46975;51.898;11.444;2022-11-25T03:39:09;5.40;99.90
61092;DHT22;46975;51.898;11.444;2022-11-25T03:41:34;5.40;99.90
61092;DHT22;46975;51.898;11.444;2022-11-25T03:44:00;5.40;99.90
61092;DHT22;46975;51.898;11.444;2022-11-25T03:46:26;5.40;99.90
61092;DHT22;46975;51.898;11.444;2022-11-25T03:48:51;5.40;99.90
61092;DHT22;46975;51.898;11.444;2022-11-25T03:51:17;5.30;99.90
61092;DHT22;46975;51.898;11.444;2022-11-25T03:53:44;5.20;99.90
61092;DHT22;46975;51.898;11.444;2022-11-25T03:56:09;5.10;99.90
61092;DHT22;46975;51.898;11.444;2022-11-25T03:58:35;5.00;99.90
61092;DHT22;46975;51.898;11.444;2022-11-25T04:01:02;4.90;99.90
61092;DHT22;46975;51.898;11.444;2022-11-25T04:03:28;4.90;99.90
61092;DHT22;46975;51.898;11.444;2022-11-25T04:05:54;4.90;99.90
61092;DHT22;46975;51.898;11.444;2022-11-25T04:08:20;4.90;99.90
61092;DHT22;46975;51.898;11.444;2022-11-25T04:10:48;5.00;99.90
61092;DHT22;46975;51.898;11.444;2022-11-25T04:13:14;5.00;99.90
61092;DHT22;46975;51.898;11.444;2022-11-25T04:15:47;5.00;99.90
61092;DHT22;46975;51.898;11.444;2022-11-25T04:18:13;5.00;99.90
61092;DHT22;46975;51.898;11.444;2022-11-25T04:20:39;5.00;99.90
61092;DHT22;46975;51.898;11.444;2022-11-25T04:23:05;5.10;99.90
61092;DHT22;46975;51.898;11.444;2022-11-25T04:25:32;5.30;99.90
61092;DHT22;46975;51.898;11.444;2022-11-25T04:27:57;5.40;99.90
61092;DHT22;46975;51.898;11.444;2022-11-25T04:30:24;5.60;99.90
61092;DHT22;46975;51.898;11.444;2022-11-25T04:32:49;5.60;99.90
61092;DHT22;46975;51.898;11.444;2022-11-25T04:35:15;5.60;99.90
61092;DHT22;46975;51.898;11.444;2022-11-25T04:37:41;5.60;99.90
61092;DHT22;46975;51.898;11.444;2022-11-25T04:40:07;5.50;99.90
61092;DHT22;46975;51.898;11.444;2022-11-25T04:42:33;5.50;99.90
61092;DHT22;46975;51.898;11.444;2022-11-25T04:45:04;5.40;99.90
61092;DHT22;46975;51.898;11.444;2022-11-25T04:47:30;5.40;99.90
61092;DHT22;46975;51.898;11.444;2022-11-25T04:49:56;5.30;99.90
61092;DHT22;46975;51.898;11.444;2022-11-25T04:52:22;5.20;99.90
61092;DHT22;46975;51.898;11.444;2022-11-25T04:54:48;5.20;99.90
61092;DHT22;46975;51.898;11.444;2022-11-25T04:57:14;5.10;99.90
61092;DHT22;46975;51.898;11.444;2022-11-25T04:59:41;5.10;99.90
61092;DHT22;46975;51.898;11.444;2022-11-25T05:02:22;5.00;99.90
61092;DHT22;46975;51.898;11.444;2022-11-25T05:04:51;4.90;99.90
61092;DHT22;46975;51.898;11.444;2022-11-25T05:07:18;4.80;99.90
61092;DHT22;46975;51.898;11.444;2022-11-25T05:09:44;4.70;99.90
61092;DHT22;46975;51.898;11.444;2022-11-25T05:12:16;4.70;99.90
61092;DHT22;46975;51.898;11.444;2022-11-25T05:14:42;4.60;99.90
61092;DHT22;46975;51.898;11.444;2022-11-25T05:17:12;4.40;99.90
61092;DHT22;46975;51.898;11.444;2022-11-25T05:19:38;4.30;99.90
61092;DHT22;46975;51.898;11.444;2022-11-25T05:22:04;4.20;99.90
61092;DHT22;46975;51.898;11.444;2022-11-25T05:24:30;4.30;99.90
61092;DHT22;46975;51.898;11.444;2022-11-25T05:26:55;4.30;99.90
61092;DHT22;46975;51.898;11.444;2022-11-25T05:29:22;4.30;99.90
61092;DHT22;46975;51.898;11.444;2022-11-25T05:31:48;4.30;99.90
61092;DHT22;46975;51.898;11.444;2022-11-25T05:34:13;4.30;99.90
61092;DHT22;46975;51.898;11.444;2022-11-25T05:36:39;4.30;99.90
61092;DHT22;46975;51.898;11.444;2022-11-25T05:39:04;4.20;99.90
61092;DHT22;46975;51.898;11.444;2022-11-25T05:41:30;4.30;99.90
61092;DHT22;46975;51.898;11.444;2022-11-25T05:43:56;4.30;99.90
61092;DHT22;46975;51.898;11.444;2022-11-25T05:46:22;4.30;99.90
61092;DHT22;46975;51.898;11.444;2022-11-25T05:48:49;4.30;99.90
61092;DHT22;46975;51.898;11.444;2022-11-25T05:51:16;4.50;99.90
61092;DHT22;46975;51.898;11.444;2022-11-25T05:53:42;4.60;99.90
61092;DHT22;46975;51.898;11.444;2022-11-25T05:56:09;4.70;99.90
61092;DHT22;46975;51.898;11.444;2022-11-25T05:58:34;4.60;99.90
61092;DHT22;46975;51.898;11.444;2022-11-25T06:01:05;4.50;99.90
61092;DHT22;46975;51.898;11.444;2022-11-25T06:03:32;4.40;99.90
61092;DHT22;46975;51.898;11.444;2022-11-25T06:05:58;4.30;99.90
61092;DHT22;46975;51.898;11.444;2022-11-25T06:08:25;4.20;99.90
61092;DHT22;46975;51.898;11.444;2022-11-25T06:10:51;4.40;99.90
61092;DHT22;46975;51.898;11.444;2022-11-25T06:13:18;4.60;99.90
61092;DHT22;46975;51.898;11.444;2022-11-25T06:15:44;4.60;99.90
61092;DHT22;46975;51.898;11.444;2022-11-25T06:18:11;4.50;99.90
61092;DHT22;46975;51.898;11.444;2022-11-25T06:20:37;4.50;99.90
61092;DHT22;46975;51.898;11.444;2022-11-25T06:23:03;4.50;99.90
61092;DHT22;46975;51.898;11.444;2022-11-25T06:25:29;4.50;99.90
61092;DHT22;46975;51.898;11.444;2022-11-25T06:27:55;4.50;99.90
61092;DHT22;46975;51.898;11.444;2022-11-25T06:30:21;4.60;99.90
61092;DHT22;46975;51.898;11.444;2022-11-25T06:32:47;4.70;99.90
61092;DHT22;46975;51.898;11.444;2022-11-25T06:35:13;4.70;99.90
61092;DHT22;46975;51.898;11.444;2022-11-25T06:37:38;4.70;99.90
61092;DHT22;46975;51.898;11.444;2022-11-25T06:40:05;4.70;99.90
61092;DHT22;46975;51.898;11.444;2022-11-25T06:42:31;4.70;99.90
61092;DHT22;46975;51.898;11.444;2022-11-25T06:44:57;4.70;99.90
61092;DHT22;46975;51.898;11.444;2022-11-25T06:47:22;4.70;99.90
61092;DHT22;46975;51.898;11.444;2022-11-25T06:49:48;4.70;99.90
61092;DHT22;46975;51.898;11.444;2022-11-25T06:52:14;4.70;99.90
61092;DHT22;46975;51.898;11.444;2022-11-25T06:54:40;4.70;99.90
61092;DHT22;46975;51.898;11.444;2022-11-25T06:57:10;4.70;99.90
61092;DHT22;46975;51.898;11.444;2022-11-25T06:59:36;4.60;99.90
61092;DHT22;46975;51.898;11.444;2022-11-25T07:02:02;4.70;99.90
61092;DHT22;46975;51.898;11.444;2022-11-25T07:04:28;4.80;99.90
61092;DHT22;46975;51.898;11.444;2022-11-25T07:06:54;5.00;99.90
61092;DHT22;46975;51.898;11.444;2022-11-25T07:09:20;5.00;99.90
61092;DHT22;46975;51.898;11.444;2022-11-25T07:11:47;5.10;99.90
61092;DHT22;46975;51.898;11.444;2022-11-25T07:14:14;5.10;99.90
61092;DHT22;46975;51.898;11.444;2022-11-25T07:16:42;5.20;99.90
61092;DHT22;46975;51.898;11.444;2022-11-25T07:19:10;5.20;99.90
61092;DHT22;46975;51.898;11.444;2022-11-25T07:21:36;5.10;99.90
61092;DHT22;46975;51.898;11.444;2022-11-25T07:24:04;5.20;99.90
61092;DHT22;46975;51.898;11.444;2022-11-25T07:26:33;5.20;99.90
61092;DHT22;46975;51.898;11.444;2022-11-25T07:29:00;5.20;99.90
61092;DHT22;46975;51.898;11.444;2022-11-25T07:31:29;5.20;99.90
61092;DHT22;46975;51.898;11.444;2022-11-25T07:34:10;5.10;99.90
61092;DHT22;46975;51.898;11.444;2022-11-25T07:36:36;5.00;99.90
61092;DHT22;46975;51.898;11.444;2022-11-25T07:39:09;5.00;99.90
61092;DHT22;46975;51.898;11.444;2022-11-25T07:41:35;5.10;99.90
61092;DHT22;46975;51.898;11.444;2022-11-25T07:44:03;5.10;99.90
61092;DHT22;46975;51.898;11.444;2022-11-25T07:46:31;5.10;99.90
61092;DHT22;46975;51.898;11.444;2022-11-25T07:49:11;5.10;99.90
61092;DHT22;46975;51.898;11.444;2022-11-25T07:51:43;5.10;99.90
61092;DHT22;46975;51.898;11.444;2022-11-25T07:54:12;5.10;99.90
61092;DHT22;46975;51.898;11.444;2022-11-25T07:56:39;5.10;99.90
61092;DHT22;46975;51.898;11.444;2022-11-25T07:59:08;5.00;99.90
61092;DHT22;46975;51.898;11.444;2022-11-25T08:01:34;5.00;99.90
61092;DHT22;46975;51.898;11.444;2022-11-25T08:04:00;5.00;99.90
61092;DHT22;46975;51.898;11.444;2022-11-25T08:06:27;5.00;99.90
61092;DHT22;46975;51.898;11.444;2022-11-25T08:08:54;5.00;99.90
61092;DHT22;46975;51.898;11.444;2022-11-25T08:11:29;5.00;99.90
61092;DHT22;46975;51.898;11.444;2022-11-25T08:13:55;5.00;99.90
61092;DHT22;46975;51.898;11.444;2022-11-25T08:16:23;5.00;99.90
61092;DHT22;46975;51.898;11.444;2022-11-25T08:18:50;5.10;99.90
61092;DHT22;46975;51.898;11.444;2022-11-25T08:21:17;5.10;99.90
61092;DHT22;46975;51.898;11.444;2022-11-25T08:23:43;5.10;99.90
61092;DHT22;46975;51.898;11.444;2022-11-25T08:26:20;5.20;99.90
61092;DHT22;46975;51.898;11.444;2022-11-25T08:28:47;5.20;99.90
61092;DHT22;46975;51.898;11.444;2022-11-25T08:31:23;5.30;99.90
61092;DHT22;46975;51.898;11.444;2022-11-25T08:33:50;5.40;99.90
61092;DHT22;46975;51.898;11.444;2022-11-25T08:36:17;5.50;99.90
61092;DHT22;46975;51.898;11.444;2022-11-25T08:38:44;5.50;99.90
61092;DHT22;46975;51.898;11.444;2022-11-25T08:41:21;5.60;99.90
61092;DHT22;46975;51.898;11.444;2022-11-25T08:43:47;5.70;99.90
61092;DHT22;46975;51.898;11.444;2022-11-25T08:46:18;5.80;99.90
61092;DHT22;46975;51.898;11.444;2022-11-25T08:48:45;5.90;99.90
61092;DHT22;46975;51.898;11.444;2022-11-25T08:51:17;5.90;99.90
61092;DHT22;46975;51.898;11.444;2022-11-25T08:53:44;6.00;99.90
61092;DHT22;46975;51.898;11.444;2022-11-25T08:56:11;5.90;99.90
61092;DHT22;46975;51.898;11.444;2022-11-25T08:58:37;5.80;99.90
61092;DHT22;46975;51.898;11.444;2022-11-25T09:01:03;5.70;99.90
61092;DHT22;46975;51.898;11.444;2022-11-25T09:03:38;5.70;99.90
61092;DHT22;46975;51.898;11.444;2022-11-25T09:06:05;5.60;99.90
61092;DHT22;46975;51.898;11.444;2022-11-25T09:08:31;5.70;99.90
61092;DHT22;46975;51.898;11.444;2022-11-25T09:10:57;5.70;99.90
61092;DHT22;46975;51.898;11.444;2022-11-25T09:13:23;5.70;99.90
61092;DHT22;46975;51.898;11.444;2022-11-25T09:15:49;5.70;99.90
61092;DHT22;46975;51.898;11.444;2022-11-25T09:18:14;5.70;99.90
61092;DHT22;46975;51.898;11.444;2022-11-25T09:20:41;5.70;99.90
61092;DHT22;46975;51.898;11.444;2022-11-25T09:23:07;5.80;99.90
61092;DHT22;46975;51.898;11.444;2022-11-25T09:25:34;5.90;99.90
61092;DHT22;46975;51.898;11.444;2022-11-25T09:28:00;5.90;99.90
61092;DHT22;46975;51.898;11.444;2022-11-25T09:30:26;6.00;99.90
61092;DHT22;46975;51.898;11.444;2022-11-25T09:32:53;6.10;99.90
61092;DHT22;46975;51.898;11.444;2022-11-25T09:35:21;6.10;99.90
61092;DHT22;46975;51.898;11.444;2022-11-25T09:37:47;6.30;99.90
61092;DHT22;46975;51.898;11.444;2022-11-25T09:46:16;6.60;99.90
61092;DHT22;46975;51.898;11.444;2022-11-25T09:54:41;6.90;99.90
61092;DHT22;46975;51.898;11.444;2022-11-25T09:59:47;7.10;99.90
61092;DHT22;46975;51.898;11.444;2022-11-25T10:02:27;7.20;99.90
61092;DHT22;46975;51.898;11.444;2022-11-25T10:05:03;7.30;99.90
61092;DHT22;46975;51.898;11.444;2022-11-25T10:07:35;7.40;99.90
61092;DHT22;46975;51.898;11.444;2022-11-25T10:10:04;7.40;99.90
61092;DHT22;46975;51.898;11.444;2022-11-25T10:12:35;7.50;99.90
61092;DHT22;46975;51.898;11.444;2022-11-25T10:15:07;7.60;99.90
61092;DHT22;46975;51.898;11.444;2022-11-25T10:17:44;7.70;99.90
61092;DHT22;46975;51.898;11.444;2022-11-25T10:20:27;7.80;99.90
61092;DHT22;46975;51.898;11.444;2022-11-25T10:22:59;8.00;99.90
61092;DHT22;46975;51.898;11.444;2022-11-25T10:25:33;8.20;99.90
61092;DHT22;46975;51.898;11.444;2022-11-25T10:28:17;8.20;99.90
61092;DHT22;46975;51.898;11.444;2022-11-25T10:31:00;8.30;99.90
61092;DHT22;46975;51.898;11.444;2022-11-25T10:33:28;8.40;99.90
61092;DHT22;46975;51.898;11.444;2022-11-25T10:41:31;8.40;99.90
61092;DHT22;46975;51.898;11.444;2022-11-25T10:43:57;8.50;99.90
61092;DHT22;46975;51.898;11.444;2022-11-25T10:46:36;8.50;99.90
61092;DHT22;46975;51.898;11.444;2022-11-25T10:49:29;8.50;99.90
61092;DHT22;46975;51.898;11.444;2022-11-25T10:52:00;8.70;99.90
61092;DHT22;46975;51.898;11.444;2022-11-25T10:54:28;8.70;99.90
61092;DHT22;46975;51.898;11.444;2022-11-25T10:56:59;8.90;99.90
61092;DHT22;46975;51.898;11.444;2022-11-25T10:59:38;9.10;99.90
61092;DHT22;46975;51.898;11.444;2022-11-25T11:02:20;9.30;99.90
61092;DHT22;46975;51.898;11.444;2022-11-25T11:05:04;9.40;99.90
61092;DHT22;46975;51.898;11.444;2022-11-25T11:07:45;9.60;99.90
61092;DHT22;46975;51.898;11.444;2022-11-25T11:10:20;9.70;99.90
61092;DHT22;46975;51.898;11.444;2022-11-25T11:13:19;9.80;99.90
61092;DHT22;46975;51.898;11.444;2022-11-25T11:15:46;9.80;99.90
61092;DHT22;46975;51.898;11.444;2022-11-25T11:20:55;9.80;99.90
61092;DHT22;46975;51.898;11.444;2022-11-25T11:23:22;9.70;99.90
61092;DHT22;46975;51.898;11.444;2022-11-25T11:26:30;9.80;99.90
61092;DHT22;46975;51.898;11.444;2022-11-25T11:31:28;9.80;99.90
61092;DHT22;46975;51.898;11.444;2022-11-25T11:42:25;9.90;99.90
61092;DHT22;46975;51.898;11.444;2022-11-25T11:58:27;9.90;99.90
61092;DHT22;46975;51.898;11.444;2022-11-25T12:03:42;9.80;99.90
61092;DHT22;46975;51.898;11.444;2022-11-25T12:06:09;9.80;99.90
61092;DHT22;46975;51.898;11.444;2022-11-25T12:08:51;9.80;99.90
61092;DHT22;46975;51.898;11.444;2022-11-25T12:11:28;9.70;99.90
61092;DHT22;46975;51.898;11.444;2022-11-25T12:17:01;9.70;99.90
61092;DHT22;46975;51.898;11.444;2022-11-25T12:22:05;9.60;99.90
61092;DHT22;46975;51.898;11.444;2022-11-25T12:27:28;9.70;99.90
61092;DHT22;46975;51.898;11.444;2022-11-25T12:30:06;9.80;99.90
61092;DHT22;46975;51.898;11.444;2022-11-25T12:32:40;9.80;99.90
61092;DHT22;46975;51.898;11.444;2022-11-25T12:35:14;9.80;99.90
61092;DHT22;46975;51.898;11.444;2022-11-25T12:40:40;9.80;99.90
61092;DHT22;46975;51.898;11.444;2022-11-25T12:46:33;9.80;99.90
61092;DHT22;46975;51.898;11.444;2022-11-25T12:49:00;9.70;99.90
61092;DHT22;46975;51.898;11.444;2022-11-25T13:15:57;9.20;99.90
61092;DHT22;46975;51.898;11.444;2022-11-25T13:18:26;9.20;99.90
61092;DHT22;46975;51.898;11.444;2022-11-25T13:20:54;9.20;99.90
61092;DHT22;46975;51.898;11.444;2022-11-25T13:25:51;9.10;99.90
61092;DHT22;46975;51.898;11.444;2022-11-25T13:28:35;9.00;99.90
61092;DHT22;46975;51.898;11.444;2022-11-25T13:36:24;9.00;99.90
61092;DHT22;46975;51.898;11.444;2022-11-25T13:44:17;8.80;99.90
61092;DHT22;46975;51.898;11.444;2022-11-25T13:46:46;8.80;99.90
61092;DHT22;46975;51.898;11.444;2022-11-25T13:49:36;8.80;99.90
61092;DHT22;46975;51.898;11.444;2022-11-25T13:54:54;8.80;99.90
61092;DHT22;46975;51.898;11.444;2022-11-25T14:00:24;8.70;99.90
61092;DHT22;46975;51.898;11.444;2022-11-25T14:02:53;8.70;99.90
61092;DHT22;46975;51.898;11.444;2022-11-25T14:21:56;8.50;99.90
61092;DHT22;46975;51.898;11.444;2022-11-25T14:26:57;8.50;99.90
61092;DHT22;46975;51.898;11.444;2022-11-25T14:34:54;8.30;99.90
61092;DHT22;46975;51.898;11.444;2022-11-25T14:37:31;8.20;99.90
61092;DHT22;46975;51.898;11.444;2022-11-25T14:40:11;8.20;99.90
61092;DHT22;46975;51.898;11.444;2022-11-25T14:42:42;8.20;99.90
61092;DHT22;46975;51.898;11.444;2022-11-25T14:45:25;8.10;99.90
61092;DHT22;46975;51.898;11.444;2022-11-25T14:47:50;8.10;99.90
61092;DHT22;46975;51.898;11.444;2022-11-25T14:50:17;8.10;99.90
61092;DHT22;46975;51.898;11.444;2022-11-25T14:52:43;8.10;99.90
61092;DHT22;46975;51.898;11.444;2022-11-25T14:55:14;8.00;99.90
61092;DHT22;46975;51.898;11.444;2022-11-25T14:57:48;8.00;99.90
61092;DHT22;46975;51.898;11.444;2022-11-25T15:00:15;8.00;99.90
61092;DHT22;46975;51.898;11.444;2022-11-25T15:02:59;8.00;99.90
61092;DHT22;46975;51.898;11.444;2022-11-25T15:05:35;8.00;99.90
61092;DHT22;46975;51.898;11.444;2022-11-25T15:13:21;8.10;99.90
61092;DHT22;46975;51.898;11.444;2022-11-25T15:15:49;8.10;99.90
61092;DHT22;46975;51.898;11.444;2022-11-25T15:18:21;8.10;99.90
61092;DHT22;46975;51.898;11.444;2022-11-25T15:20:52;8.10;99.90
61092;DHT22;46975;51.898;11.444;2022-11-25T15:23:28;8.10;99.90
61092;DHT22;46975;51.898;11.444;2022-11-25T15:25:56;8.00;99.90
61092;DHT22;46975;51.898;11.444;2022-11-25T15:28:22;7.90;99.90
61092;DHT22;46975;51.898;11.444;2022-11-25T15:30:56;7.90;99.90
61092;DHT22;46975;51.898;11.444;2022-11-25T15:33:23;7.90;99.90
61092;DHT22;46975;51.898;11.444;2022-11-25T15:35:50;7.90;99.90
61092;DHT22;46975;51.898;11.444;2022-11-25T15:38:19;7.80;99.90
61092;DHT22;46975;51.898;11.444;2022-11-25T15:40:59;7.80;99.90
61092;DHT22;46975;51.898;11.444;2022-11-25T15:43:28;7.80;99.90
61092;DHT22;46975;51.898;11.444;2022-11-25T15:46:00;7.80;99.90
61092;DHT22;46975;51.898;11.444;2022-11-25T15:48:32;7.80;99.90
61092;DHT22;46975;51.898;11.444;2022-11-25T15:51:05;7.80;99.90
61092;DHT22;46975;51.898;11.444;2022-11-25T15:53:32;7.80;99.90
61092;DHT22;46975;51.898;11.444;2022-11-25T15:56:02;7.90;99.90
61092;DHT22;46975;51.898;11.444;2022-11-25T15:58:29;7.90;99.90
61092;DHT22;46975;51.898;11.444;2022-11-25T16:01:20;8.00;99.90
61092;DHT22;46975;51.898;11.444;2022-11-25T16:03:47;8.00;99.90
61092;DHT22;46975;51.898;11.444;2022-11-25T16:06:27;7.90;99.90
61092;DHT22;46975;51.898;11.444;2022-11-25T16:08:58;7.90;99.90
61092;DHT22;46975;51.898;11.444;2022-11-25T16:11:25;8.00;99.90
61092;DHT22;46975;51.898;11.444;2022-11-25T16:14:15;8.00;99.90
61092;DHT22;46975;51.898;11.444;2022-11-25T16:16:39;8.00;99.90
61092;DHT22;46975;51.898;11.444;2022-11-25T16:19:15;8.00;99.90
61092;DHT22;46975;51.898;11.444;2022-11-25T16:21:43;8.00;99.90
61092;DHT22;46975;51.898;11.444;2022-11-25T16:24:45;8.00;99.90
61092;DHT22;46975;51.898;11.444;2022-11-25T16:27:16;7.90;99.90
61092;DHT22;46975;51.898;11.444;2022-11-25T16:29:51;7.90;99.90
61092;DHT22;46975;51.898;11.444;2022-11-25T16:32:20;7.80;99.90
61092;DHT22;46975;51.898;11.444;2022-11-25T16:34:46;7.80;99.90
61092;DHT22;46975;51.898;11.444;2022-11-25T16:37:12;7.80;99.90
61092;DHT22;46975;51.898;11.444;2022-11-25T16:39:37;7.80;99.90
61092;DHT22;46975;51.898;11.444;2022-11-25T16:42:04;7.80;99.90
61092;DHT22;46975;51.898;11.444;2022-11-25T16:44:32;7.70;99.90
61092;DHT22;46975;51.898;11.444;2022-11-25T16:46:58;7.70;99.90
61092;DHT22;46975;51.898;11.444;2022-11-25T16:49:24;7.70;99.90
61092;DHT22;46975;51.898;11.444;2022-11-25T16:51:51;7.70;99.90
61092;DHT22;46975;51.898;11.444;2022-11-25T16:54:18;7.70;99.90
61092;DHT22;46975;51.898;11.444;2022-11-25T16:56:46;7.80;99.90
61092;DHT22;46975;51.898;11.444;2022-11-25T17:01:45;7.80;99.90
61092;DHT22;46975;51.898;11.444;2022-11-25T17:04:12;7.80;99.90
61092;DHT22;46975;51.898;11.444;2022-11-25T17:06:38;7.90;99.90
61092;DHT22;46975;51.898;11.444;2022-11-25T17:09:03;7.80;99.90
61092;DHT22;46975;51.898;11.444;2022-11-25T17:11:43;7.80;99.90
61092;DHT22;46975;51.898;11.444;2022-11-25T17:14:31;7.90;99.90
61092;DHT22;46975;51.898;11.444;2022-11-25T17:17:01;7.90;99.90
61092;DHT22;46975;51.898;11.444;2022-11-25T17:19:27;8.00;99.90
61092;DHT22;46975;51.898;11.444;2022-11-25T17:21:53;7.90;99.90
61092;DHT22;46975;51.898;11.444;2022-11-25T17:24:21;7.90;99.90
61092;DHT22;46975;51.898;11.444;2022-11-25T17:26:59;7.90;99.90
61092;DHT22;46975;51.898;11.444;2022-11-25T17:29:40;7.90;99.90
61092;DHT22;46975;51.898;11.444;2022-11-25T17:32:10;7.90;99.90
61092;DHT22;46975;51.898;11.444;2022-11-25T17:34:37;7.80;99.90
61092;DHT22;46975;51.898;11.444;2022-11-25T17:37:05;7.90;99.90
61092;DHT22;46975;51.898;11.444;2022-11-25T17:39:35;7.90;99.90
61092;DHT22;46975;51.898;11.444;2022-11-25T17:42:01;7.90;99.90
61092;DHT22;46975;51.898;11.444;2022-11-25T17:44:28;7.90;99.90
61092;DHT22;46975;51.898;11.444;2022-11-25T17:46:56;7.80;99.90
61092;DHT22;46975;51.898;11.444;2022-11-25T17:49:22;7.80;99.90
61092;DHT22;46975;51.898;11.444;2022-11-25T17:51:48;7.70;99.90
61092;DHT22;46975;51.898;11.444;2022-11-25T17:54:15;7.70;99.90
61092;DHT22;46975;51.898;11.444;2022-11-25T17:56:42;7.70;99.90
61092;DHT22;46975;51.898;11.444;2022-11-25T17:59:25;7.70;99.90
61092;DHT22;46975;51.898;11.444;2022-11-25T18:01:51;7.70;99.90
61092;DHT22;46975;51.898;11.444;2022-11-25T18:04:25;7.70;99.90
61092;DHT22;46975;51.898;11.444;2022-11-25T18:06:52;7.70;99.90
61092;DHT22;46975;51.898;11.444;2022-11-25T18:09:18;7.60;99.90
61092;DHT22;46975;51.898;11.444;2022-11-25T18:11:47;7.60;99.90